createdAt,value
2019-05-05T00:01:02.728Z,4.37
2019-05-05T00:03:45.372Z,6.17
2019-05-05T00:06:11.627Z,6.40
2019-05-05T00:08:37.598Z,5.37
2019-05-05T00:11:08.382Z,4.73
2019-05-05T00:13:38.866Z,5.13
2019-05-05T00:16:15.636Z,5.20
2019-05-05T00:18:41.582Z,6.43
2019-05-05T00:21:07.434Z,6.40
2019-05-05T00:23:34.552Z,7.47
2019-05-05T00:26:00.520Z,7.90
2019-05-05T00:28:26.456Z,8.10
2019-05-05T00:30:52.400Z,8.77
2019-05-05T00:33:18.346Z,9.17
2019-05-05T00:35:45.167Z,7.87
2019-05-05T00:38:11.145Z,7.93
2019-05-05T00:40:37.098Z,9.50
2019-05-05T00:43:05.193Z,9.63
2019-05-05T00:45:31.116Z,8.57
2019-05-05T00:48:07.983Z,9.27
2019-05-05T00:50:34.324Z,8.23
2019-05-05T00:53:00.400Z,7.93
2019-05-05T00:55:26.414Z,7.17
2019-05-05T00:57:54.654Z,9.43
2019-05-05T01:00:39.546Z,8.80
2019-05-05T01:03:05.705Z,7.60
2019-05-05T01:05:36.450Z,8.10
2019-05-05T01:08:05.098Z,8.60
2019-05-05T01:10:30.770Z,9.40
2019-05-05T01:12:56.589Z,8.50
2019-05-05T01:15:22.455Z,8.93
2019-05-05T01:17:48.402Z,8.90
2019-05-05T01:20:14.674Z,9.40
2019-05-05T01:22:40.687Z,10.00
2019-05-05T01:25:06.819Z,9.40
2019-05-05T01:27:34.737Z,11.70
2019-05-05T01:30:00.792Z,12.00
2019-05-05T01:32:44.930Z,11.40
2019-05-05T01:35:11.104Z,11.77
2019-05-05T01:37:41.583Z,13.77
2019-05-05T01:40:24.732Z,11.37
2019-05-05T01:42:50.784Z,11.67
2019-05-05T01:45:16.898Z,11.63
2019-05-05T01:47:42.837Z,11.43
2019-05-05T01:50:18.238Z,11.40
2019-05-05T01:52:38.435Z,12.00
2019-05-05T01:55:05.312Z,11.60
2019-05-05T01:57:31.332Z,11.60
2019-05-05T01:59:57.379Z,11.57
2019-05-05T02:02:25.131Z,12.37
2019-05-05T02:04:51.182Z,12.53
2019-05-05T02:07:17.134Z,11.57
2019-05-05T02:09:44.857Z,11.20
2019-05-05T02:12:10.991Z,11.70
2019-05-05T02:14:36.936Z,11.27
2019-05-05T02:17:04.912Z,12.03
2019-05-05T02:19:30.707Z,10.53
2019-05-05T02:21:56.556Z,12.20
2019-05-05T02:24:22.391Z,10.57
2019-05-05T02:26:48.428Z,9.87
2019-05-05T02:29:32.818Z,10.77
2019-05-05T02:32:17.033Z,10.33
2019-05-05T02:34:56.672Z,9.93
2019-05-05T02:37:25.626Z,11.13
2019-05-05T02:39:59.003Z,10.97
2019-05-05T02:42:20.276Z,11.10
2019-05-05T02:44:46.545Z,10.80
2019-05-05T02:47:29.908Z,12.07
2019-05-05T02:49:59.577Z,13.50
2019-05-05T02:52:25.598Z,12.20
2019-05-05T02:54:53.641Z,12.50
2019-05-05T02:57:21.008Z,12.13
2019-05-05T02:59:49.070Z,12.63
2019-05-05T03:02:19.787Z,13.43
2019-05-05T03:04:45.726Z,11.60
2019-05-05T03:07:13.794Z,13.03
2019-05-05T03:09:40.707Z,11.80
2019-05-05T03:12:07.187Z,13.73
2019-05-05T03:14:34.915Z,11.80
2019-05-05T03:17:04.227Z,12.07
2019-05-05T03:19:30.309Z,13.30
2019-05-05T03:21:56.272Z,14.50
2019-05-05T03:24:23.604Z,13.00
2019-05-05T03:26:49.663Z,13.27
2019-05-05T03:29:17.511Z,12.47
2019-05-05T03:31:45.798Z,12.90
2019-05-05T03:34:11.427Z,13.83
2019-05-05T03:36:37.353Z,11.90
2019-05-05T03:39:05.311Z,10.50
2019-05-05T03:41:48.141Z,11.80
2019-05-05T03:44:19.206Z,12.00
2019-05-05T03:46:45.239Z,12.07
2019-05-05T03:49:11.289Z,9.90
2019-05-05T03:51:37.240Z,11.27
2019-05-05T03:54:04.316Z,12.20
2019-05-05T03:56:30.436Z,12.73
2019-05-05T03:58:58.328Z,12.37
2019-05-05T04:01:37.246Z,12.47
2019-05-05T04:04:24.387Z,12.80
2019-05-05T04:06:54.049Z,11.77
2019-05-05T04:09:20.657Z,11.23
2019-05-05T04:11:46.734Z,11.80
2019-05-05T04:14:14.218Z,10.17
2019-05-05T04:16:43.568Z,11.03
2019-05-05T04:19:11.366Z,10.43
2019-05-05T04:21:37.336Z,12.37
2019-05-05T04:24:04.038Z,11.40
2019-05-05T04:26:30.133Z,12.07
2019-05-05T04:28:56.064Z,11.27
2019-05-05T04:31:24.049Z,10.27
2019-05-05T04:33:49.855Z,11.13
2019-05-05T04:36:15.681Z,10.97
2019-05-05T04:38:43.743Z,10.80
2019-05-05T04:41:09.460Z,11.13
2019-05-05T04:43:35.450Z,11.70
2019-05-05T04:46:01.293Z,10.20
2019-05-05T04:48:31.563Z,11.37
2019-05-05T04:51:02.050Z,10.80
2019-05-05T04:53:29.901Z,9.70
2019-05-05T04:55:55.739Z,11.90
2019-05-05T04:58:21.685Z,10.80
2019-05-05T05:00:47.623Z,11.00
2019-05-05T05:03:32.146Z,11.80
2019-05-05T05:05:59.980Z,10.37
2019-05-05T05:08:25.827Z,11.97
2019-05-05T05:10:51.868Z,10.97
2019-05-05T05:13:17.841Z,12.07
2019-05-05T05:15:44.602Z,12.17
2019-05-05T05:18:14.577Z,11.53
2019-05-05T05:20:40.289Z,13.77
2019-05-05T05:23:06.124Z,11.00
2019-05-05T05:25:32.042Z,12.17
2019-05-05T05:27:57.894Z,12.60
2019-05-05T05:30:24.313Z,11.03
2019-05-05T05:32:50.156Z,10.60
2019-05-05T05:35:16.126Z,10.87
2019-05-05T05:37:41.958Z,11.50
2019-05-05T05:40:23.632Z,9.60
2019-05-05T05:42:49.561Z,10.70
2019-05-05T05:45:20.067Z,11.00
2019-05-05T05:48:04.596Z,11.40
2019-05-05T05:50:33.941Z,9.50
2019-05-05T05:52:59.886Z,12.07
2019-05-05T05:55:25.746Z,9.87
2019-05-05T05:57:51.589Z,10.03
2019-05-05T06:00:17.446Z,10.00
2019-05-05T06:02:43.994Z,10.63
2019-05-05T06:05:10.035Z,10.20
2019-05-05T06:07:35.990Z,11.03
2019-05-05T06:10:03.733Z,10.73
2019-05-05T06:12:29.827Z,9.60
2019-05-05T06:14:55.684Z,9.77
2019-05-05T06:17:23.666Z,9.70
2019-05-05T06:19:49.694Z,10.60
2019-05-05T06:22:28.105Z,9.50
2019-05-05T06:24:44.049Z,9.47
2019-05-05T06:27:10.046Z,9.17
2019-05-05T06:29:35.967Z,10.23
2019-05-05T06:32:03.883Z,9.23
2019-05-05T06:34:29.584Z,9.23
2019-05-05T06:36:55.538Z,8.93
2019-05-05T06:39:21.422Z,7.60
2019-05-05T06:41:53.798Z,9.13
2019-05-05T06:44:21.703Z,7.80
2019-05-05T06:46:53.729Z,7.23
2019-05-05T06:49:19.750Z,6.80
2019-05-05T06:51:45.682Z,6.73
2019-05-05T06:54:13.612Z,6.20
2019-05-05T06:56:39.469Z,6.30
2019-05-05T06:59:06.134Z,7.13
2019-05-05T07:01:33.786Z,7.20
2019-05-05T07:03:59.830Z,8.10
2019-05-05T07:06:25.782Z,6.80
2019-05-05T07:08:51.724Z,6.90
2019-05-05T07:11:17.716Z,7.10
2019-05-05T07:13:44.310Z,7.07
2019-05-05T07:16:12.229Z,5.97
2019-05-05T07:18:38.235Z,5.83
2019-05-05T07:21:04.081Z,6.93
2019-05-05T07:23:30.026Z,8.30
2019-05-05T07:25:55.885Z,5.90
2019-05-05T07:28:23.503Z,6.50
2019-05-05T07:30:49.513Z,4.90
2019-05-05T07:33:15.455Z,5.80
2019-05-05T07:35:58.790Z,5.50
2019-05-05T07:38:20.017Z,5.80
2019-05-05T07:40:45.877Z,6.70
2019-05-05T07:43:11.915Z,5.77
2019-05-05T07:45:37.767Z,7.40
2019-05-05T07:48:04.863Z,4.53
2019-05-05T07:50:32.615Z,4.70
2019-05-05T07:53:11.437Z,4.93
2019-05-05T07:55:26.630Z,4.90
2019-05-05T07:57:53.775Z,3.77
2019-05-05T08:00:19.733Z,4.77
2019-05-05T08:02:45.554Z,4.30
2019-05-05T08:05:11.515Z,4.33
2019-05-05T08:07:37.330Z,4.20
2019-05-05T08:10:04.662Z,4.83
2019-05-05T08:12:30.634Z,3.83
2019-05-05T08:14:56.626Z,4.77
2019-05-05T08:17:30.364Z,3.70
2019-05-05T08:19:58.236Z,3.57
2019-05-05T08:22:24.181Z,3.77
2019-05-05T08:25:09.840Z,3.90
2019-05-05T08:27:40.477Z,3.80
2019-05-05T08:30:24.774Z,4.80
2019-05-05T08:32:53.914Z,3.87
2019-05-05T08:35:19.687Z,3.80
2019-05-05T08:37:45.725Z,3.90
2019-05-05T08:40:11.890Z,3.60
2019-05-05T08:42:37.837Z,3.60
2019-05-05T08:45:04.696Z,2.70
2019-05-05T08:47:30.587Z,3.63
2019-05-05T08:49:56.543Z,3.40
2019-05-05T08:52:23.834Z,3.67
2019-05-05T08:54:49.892Z,4.67
2019-05-05T08:57:15.873Z,3.17
2019-05-05T08:59:43.815Z,3.53
2019-05-05T09:02:09.622Z,4.20
2019-05-05T09:04:35.586Z,3.43
2019-05-05T09:07:01.669Z,7.93
2019-05-05T09:09:27.570Z,3.70
2019-05-05T09:11:54.208Z,3.70
2019-05-05T09:14:20.353Z,3.03
2019-05-05T09:16:46.322Z,3.97
2019-05-05T09:19:16.631Z,4.33
2019-05-05T09:21:44.625Z,3.70
2019-05-05T09:24:28.855Z,3.90
2019-05-05T09:27:05.496Z,3.70
2019-05-05T09:29:43.969Z,4.10
2019-05-05T09:32:10.064Z,3.40
2019-05-05T09:34:35.924Z,3.40
2019-05-05T09:37:03.693Z,3.27
2019-05-05T09:39:29.649Z,3.77
2019-05-05T09:41:55.803Z,3.30
2019-05-05T09:44:24.024Z,3.90
2019-05-05T09:46:49.516Z,3.17
2019-05-05T09:49:15.468Z,4.00
2019-05-05T09:51:41.413Z,3.70
2019-05-05T09:54:14.166Z,3.27
2019-05-05T09:56:35.025Z,3.03
2019-05-05T09:59:00.963Z,2.80
2019-05-05T10:01:27.007Z,3.80
2019-05-05T10:03:54.849Z,3.77
2019-05-05T10:06:20.879Z,3.13
2019-05-05T10:08:46.980Z,3.83
2019-05-05T10:11:16.255Z,3.17
2019-05-05T10:13:40.812Z,3.07
2019-05-05T10:16:06.676Z,3.40
2019-05-05T10:18:35.492Z,3.00
2019-05-05T10:21:00.350Z,3.10
2019-05-05T10:23:28.131Z,2.33
2019-05-05T10:25:55.025Z,2.30
2019-05-05T10:28:20.864Z,3.03
2019-05-05T10:30:47.020Z,3.30
2019-05-05T10:33:14.286Z,2.47
2019-05-05T10:35:40.312Z,2.40
2019-05-05T10:38:06.414Z,3.03
2019-05-05T10:40:34.058Z,2.97
2019-05-05T10:43:00.117Z,3.00
2019-05-05T10:45:25.967Z,3.07
2019-05-05T10:47:51.914Z,3.20
2019-05-05T10:50:17.984Z,3.20
2019-05-05T10:52:44.353Z,2.63
2019-05-05T10:55:10.873Z,2.70
2019-05-05T10:57:36.721Z,3.27
2019-05-05T11:00:12.403Z,3.20
2019-05-05T11:02:32.073Z,3.17
2019-05-05T11:04:58.042Z,3.10
2019-05-05T11:07:24.003Z,3.37
2019-05-05T11:09:50.055Z,2.70
2019-05-05T11:12:16.024Z,2.40
2019-05-05T11:14:43.660Z,2.97
2019-05-05T11:17:09.802Z,2.70
2019-05-05T11:19:35.747Z,3.40
2019-05-05T11:22:01.598Z,3.10
2019-05-05T11:24:27.555Z,4.10
2019-05-05T11:26:53.963Z,3.10
2019-05-05T11:29:19.940Z,3.40
2019-05-05T11:31:46.024Z,2.87
2019-05-05T11:34:19.756Z,3.17
2019-05-05T11:36:47.612Z,2.80
2019-05-05T11:39:14.768Z,2.70
2019-05-05T11:41:40.797Z,2.70
2019-05-05T11:44:06.689Z,2.60
2019-05-05T11:46:33.927Z,2.80
2019-05-05T11:49:00.023Z,3.20
2019-05-05T11:51:25.996Z,2.80
2019-05-05T11:53:53.850Z,2.83
2019-05-05T11:56:19.613Z,3.10
2019-05-05T11:58:45.702Z,2.90
2019-05-05T12:01:13.708Z,2.90
2019-05-05T12:03:39.530Z,3.10
2019-05-05T12:06:05.399Z,2.63
2019-05-05T12:08:31.355Z,2.47
2019-05-05T12:10:58.625Z,2.40
2019-05-05T12:13:24.598Z,2.83
2019-05-05T12:15:53.795Z,2.33
2019-05-05T12:18:19.732Z,3.17
2019-05-05T12:20:45.581Z,2.30
2019-05-05T12:23:11.640Z,2.30
2019-05-05T12:25:48.257Z,2.03
2019-05-05T12:28:24.946Z,2.40
2019-05-05T12:30:56.335Z,2.60
2019-05-05T12:33:24.222Z,2.67
2019-05-05T12:35:50.051Z,2.57
2019-05-05T12:38:16.094Z,2.20
2019-05-05T12:40:44.160Z,2.57
2019-05-05T12:43:09.853Z,2.27
2019-05-05T12:45:37.615Z,2.10
2019-05-05T12:48:20.255Z,2.03
2019-05-05T12:50:46.207Z,2.23
2019-05-05T12:53:12.043Z,2.40
2019-05-05T12:55:41.385Z,2.77
2019-05-05T12:58:05.766Z,2.20
2019-05-05T13:00:32.806Z,2.20
2019-05-05T13:02:58.669Z,2.17
2019-05-05T13:05:24.618Z,3.00
2019-05-05T13:07:50.694Z,1.90
2019-05-05T13:10:18.306Z,2.30
2019-05-05T13:12:44.132Z,2.50
2019-05-05T13:15:10.096Z,2.33
2019-05-05T13:17:36.030Z,2.20
2019-05-05T13:20:05.099Z,2.30
2019-05-05T13:22:41.612Z,2.10
2019-05-05T13:25:09.583Z,2.10
2019-05-05T13:27:37.436Z,3.00
2019-05-05T13:30:05.899Z,3.40
2019-05-05T13:32:33.577Z,2.33
2019-05-05T13:34:59.507Z,2.70
2019-05-05T13:37:25.565Z,2.07
2019-05-05T13:39:53.747Z,2.33
2019-05-05T13:42:19.513Z,2.60
2019-05-05T13:45:03.939Z,2.70
2019-05-05T13:47:29.961Z,2.00
2019-05-05T13:49:57.816Z,1.70
2019-05-05T13:52:24.393Z,2.33
2019-05-05T13:54:50.364Z,1.50
2019-05-05T13:57:16.321Z,1.93
2019-05-05T13:59:44.327Z,1.97
2019-05-05T14:02:10.007Z,2.00
2019-05-05T14:04:35.859Z,1.77
2019-05-05T14:07:03.995Z,1.57
2019-05-05T14:09:29.800Z,1.93
2019-05-05T14:11:55.744Z,2.30
2019-05-05T14:14:23.687Z,1.87
2019-05-05T14:16:49.764Z,2.00
2019-05-05T14:19:15.724Z,1.70
2019-05-05T14:21:41.686Z,1.60
2019-05-05T14:24:09.523Z,1.97
2019-05-05T14:26:35.500Z,1.60
2019-05-05T14:29:01.462Z,1.90
2019-05-05T14:31:29.239Z,2.60
2019-05-05T14:33:56.993Z,2.13
2019-05-05T14:36:27.645Z,2.00
2019-05-05T14:38:55.103Z,2.60
2019-05-05T14:41:20.980Z,2.43
2019-05-05T14:43:46.860Z,3.07
2019-05-05T14:46:14.534Z,3.43
2019-05-05T14:48:40.581Z,2.10
2019-05-05T14:51:06.416Z,2.13
2019-05-05T14:53:34.684Z,2.00
2019-05-05T14:56:00.048Z,2.93
2019-05-05T14:58:25.925Z,5.23
2019-05-05T15:00:51.785Z,4.80
2019-05-05T15:03:17.635Z,3.43
2019-05-05T15:05:51.439Z,2.90
2019-05-05T15:08:24.051Z,2.60
2019-05-05T15:11:00.714Z,2.73
2019-05-05T15:13:26.729Z,2.30
2019-05-05T15:15:53.958Z,3.00
2019-05-05T15:18:20.057Z,2.60
2019-05-05T15:20:46.838Z,3.07
2019-05-05T15:23:13.455Z,2.37
2019-05-05T15:25:39.350Z,2.10
2019-05-05T15:28:05.433Z,2.20
2019-05-05T15:30:33.368Z,2.47
2019-05-05T15:32:59.164Z,3.20
2019-05-05T15:35:25.114Z,2.30
2019-05-05T15:37:51.099Z,1.97
2019-05-05T15:40:17.102Z,2.60
2019-05-05T15:42:43.983Z,2.93
2019-05-05T15:45:10.147Z,1.80
2019-05-05T15:47:36.144Z,1.77
2019-05-05T15:50:05.296Z,1.50
2019-05-05T15:52:31.151Z,2.23
2019-05-05T15:54:57.033Z,2.20
2019-05-05T15:57:24.151Z,2.80
2019-05-05T15:59:50.196Z,2.20
2019-05-05T16:02:16.041Z,2.80
2019-05-05T16:04:41.912Z,2.37
2019-05-05T16:07:07.868Z,1.77
2019-05-05T16:09:34.066Z,1.60
2019-05-05T16:12:00.039Z,1.50
2019-05-05T16:14:25.983Z,1.90
2019-05-05T16:16:55.886Z,1.67
2019-05-05T16:19:24.746Z,1.77
2019-05-05T16:21:54.386Z,1.57
2019-05-05T16:24:22.214Z,3.23
2019-05-05T16:26:48.283Z,1.60
2019-05-05T16:29:14.852Z,2.00
2019-05-05T16:31:40.805Z,2.80
2019-05-05T16:34:06.839Z,2.00
2019-05-05T16:36:33.553Z,1.97
2019-05-05T16:38:59.554Z,2.10
2019-05-05T16:41:25.490Z,2.67
2019-05-05T16:43:53.335Z,1.70
2019-05-05T16:46:19.327Z,2.27
2019-05-05T16:48:45.206Z,2.00
2019-05-05T16:51:13.823Z,1.47
2019-05-05T16:53:39.716Z,2.50
2019-05-05T16:56:09.659Z,2.80
2019-05-05T16:58:35.892Z,3.40
2019-05-05T17:01:03.806Z,5.07
2019-05-05T17:03:29.833Z,2.50
2019-05-05T17:05:58.165Z,4.70
2019-05-05T17:08:24.467Z,2.43
2019-05-05T17:10:50.549Z,2.63
2019-05-05T17:13:18.322Z,2.10
2019-05-05T17:16:04.060Z,3.03
2019-05-05T17:18:35.805Z,2.77
2019-05-05T17:21:13.681Z,2.00
2019-05-05T17:23:39.588Z,1.70
2019-05-05T17:26:05.429Z,1.40
2019-05-05T17:28:33.381Z,1.40
2019-05-05T17:30:59.156Z,1.83
2019-05-05T17:33:24.994Z,1.90
2019-05-05T17:35:50.961Z,2.17
2019-05-05T17:38:16.787Z,2.40
2019-05-05T17:40:44.676Z,2.03
2019-05-05T17:43:29.161Z,2.30
2019-05-05T17:45:56.930Z,2.33
2019-05-05T17:48:27.197Z,2.00
2019-05-05T17:51:04.523Z,2.90
2019-05-05T17:53:35.198Z,2.97
2019-05-05T17:56:03.966Z,2.70
2019-05-05T17:58:29.823Z,1.60
2019-05-05T18:00:57.568Z,2.20
2019-05-05T18:03:23.559Z,2.13
2019-05-05T18:05:57.100Z,2.70
2019-05-05T18:08:39.758Z,2.60
2019-05-05T18:11:22.386Z,2.37
2019-05-05T18:13:50.148Z,2.27
2019-05-05T18:16:17.817Z,2.70
2019-05-05T18:18:44.456Z,2.37
2019-05-05T18:21:10.451Z,1.97
2019-05-05T18:23:36.305Z,1.80
2019-05-05T18:26:04.064Z,1.90
2019-05-05T18:28:30.070Z,2.20
2019-05-05T18:30:55.995Z,2.20
2019-05-05T18:33:21.835Z,1.90
2019-05-05T18:35:47.804Z,2.03
2019-05-05T18:38:13.831Z,1.77
2019-05-05T18:40:39.705Z,1.70
2019-05-05T18:43:07.557Z,1.40
2019-05-05T18:45:35.448Z,1.53
2019-05-05T18:48:01.245Z,2.03
2019-05-05T18:50:27.187Z,2.07
2019-05-05T18:52:53.818Z,1.97
2019-05-05T18:55:19.891Z,2.03
2019-05-05T18:57:45.738Z,1.57
2019-05-05T19:00:13.949Z,2.00
2019-05-05T19:02:59.602Z,1.73
2019-05-05T19:05:27.469Z,1.63
2019-05-05T19:07:56.091Z,1.90
2019-05-05T19:10:24.122Z,2.50
2019-05-05T19:12:50.977Z,2.17
2019-05-05T19:15:17.008Z,2.40
2019-05-05T19:17:42.993Z,1.83
2019-05-05T19:20:10.938Z,2.27
2019-05-05T19:22:36.988Z,2.17
2019-05-05T19:25:16.256Z,2.00
2019-05-05T19:27:45.221Z,2.80
2019-05-05T19:30:13.746Z,2.13
2019-05-05T19:32:39.650Z,2.33
2019-05-05T19:35:05.788Z,2.10
2019-05-05T19:37:33.545Z,2.70
2019-05-05T19:39:59.438Z,3.00
2019-05-05T19:42:25.294Z,2.20
2019-05-05T19:44:51.262Z,2.60
2019-05-05T19:47:19.140Z,2.97
2019-05-05T19:49:47.011Z,2.87
2019-05-05T19:52:13.565Z,3.07
2019-05-05T19:54:39.727Z,4.97
2019-05-05T19:57:05.581Z,5.70
2019-05-05T19:59:35.411Z,5.03
2019-05-05T20:01:59.326Z,3.07
2019-05-05T20:04:25.293Z,4.40
2019-05-05T20:06:51.249Z,4.13
2019-05-05T20:09:17.222Z,2.50
2019-05-05T20:11:43.757Z,2.70
2019-05-05T20:14:10.379Z,2.63
2019-05-05T20:16:54.771Z,3.07
2019-05-05T20:19:20.922Z,2.47
2019-05-05T20:21:47.088Z,2.20
2019-05-05T20:24:14.536Z,2.83
2019-05-05T20:26:40.429Z,2.43
2019-05-05T20:29:14.027Z,2.57
2019-05-05T20:31:34.625Z,3.17
2019-05-05T20:34:03.944Z,2.10
2019-05-05T20:36:34.879Z,2.87
2019-05-05T20:39:00.829Z,3.40
2019-05-05T20:41:26.689Z,3.70
2019-05-05T20:43:54.231Z,3.20
2019-05-05T20:46:20.277Z,3.60
2019-05-05T20:48:46.193Z,4.63
2019-05-05T20:51:13.766Z,3.63
2019-05-05T20:53:39.983Z,3.40
2019-05-05T20:56:05.934Z,3.83
2019-05-05T20:58:33.652Z,3.37
2019-05-05T21:00:59.731Z,3.50
2019-05-05T21:03:25.674Z,3.30
2019-05-05T21:05:53.744Z,3.90
2019-05-05T21:08:19.445Z,3.87
2019-05-05T21:10:45.276Z,4.20
2019-05-05T21:13:11.236Z,4.00
2019-05-05T21:15:37.120Z,3.73
2019-05-05T21:18:05.001Z,4.37
2019-05-05T21:20:30.812Z,3.70
2019-05-05T21:22:58.895Z,4.10
2019-05-05T21:25:29.389Z,5.17
2019-05-05T21:27:55.355Z,5.37
2019-05-05T21:30:21.182Z,5.80
2019-05-05T21:32:47.183Z,4.50
2019-05-05T21:35:14.234Z,4.20
2019-05-05T21:37:40.171Z,3.73
2019-05-05T21:40:06.463Z,4.60
2019-05-05T21:42:32.311Z,3.70
2019-05-05T21:44:58.214Z,3.50
2019-05-05T21:47:24.173Z,3.80
2019-05-05T21:49:50.090Z,3.43
2019-05-05T21:52:17.853Z,3.17
2019-05-05T21:54:45.678Z,3.13
2019-05-05T21:57:30.107Z,3.20
2019-05-05T21:59:58.751Z,3.00
2019-05-05T22:02:24.060Z,2.57
2019-05-05T22:04:50.096Z,3.20
2019-05-05T22:07:15.957Z,2.37
2019-05-05T22:09:42.627Z,2.60
2019-05-05T22:12:08.687Z,2.80
2019-05-05T22:14:34.628Z,3.53
2019-05-05T22:17:00.559Z,2.83
2019-05-05T22:19:31.320Z,3.83
2019-05-05T22:22:03.781Z,2.70
2019-05-05T22:24:29.616Z,3.50
2019-05-05T22:26:55.550Z,3.17
2019-05-05T22:29:21.491Z,2.67
2019-05-05T22:31:47.675Z,3.20
2019-05-05T22:34:14.552Z,2.20
2019-05-05T22:36:40.524Z,2.30
2019-05-05T22:39:09.957Z,3.00
2019-05-05T22:41:36.015Z,2.30
2019-05-05T22:44:04.360Z,2.20
2019-05-05T22:46:29.994Z,2.70
2019-05-05T22:48:55.949Z,3.00
2019-05-05T22:51:21.767Z,2.40
2019-05-05T22:53:47.740Z,2.77
2019-05-05T22:56:14.803Z,3.10
2019-05-05T22:58:40.789Z,2.87
2019-05-05T23:01:06.737Z,2.50
2019-05-05T23:03:40.476Z,3.00
2019-05-05T23:06:08.326Z,2.90
2019-05-05T23:08:35.057Z,2.80
2019-05-05T23:11:01.238Z,3.17
2019-05-05T23:13:27.071Z,3.00
2019-05-05T23:15:54.926Z,3.00
2019-05-05T23:18:25.773Z,3.20
2019-05-05T23:21:02.625Z,3.20
2019-05-05T23:23:39.133Z,3.30
2019-05-05T23:26:06.977Z,4.03
2019-05-05T23:28:33.888Z,3.60
2019-05-05T23:30:59.942Z,3.40
2019-05-05T23:33:25.789Z,3.63
2019-05-05T23:35:51.632Z,2.87
2019-05-05T23:38:17.668Z,3.40
2019-05-05T23:40:43.640Z,2.83
2019-05-05T23:43:09.668Z,2.60
2019-05-05T23:45:35.688Z,2.70
2019-05-05T23:48:03.572Z,3.70
2019-05-05T23:50:29.571Z,2.53
2019-05-05T23:52:55.521Z,3.37
2019-05-05T23:55:23.660Z,3.07
2019-05-05T23:57:49.235Z,3.40
